sensor_id;sensor_type;location;lat;lon;timestamp;temperature;humidity
33815;DHT22;20121;51.910;8.406;2024-02-04T07:25:51;9.10;99.90
33815;DHT22;20121;51.910;8.406;2024-02-04T07:28:17;9.10;99.90
33815;DHT22;20121;51.910;8.406;2024-02-04T07:30:42;9.10;99.90
33815;DHT22;20121;51.910;8.406;2024-02-04T07:33:08;9.40;99.90
33815;DHT22;20121;51.910;8.406;2024-02-04T07:35:34;9.10;99.90
33815;DHT22;20121;51.910;8.406;2024-02-04T07:37:59;9.10;99.90
33815;DHT22;20121;51.910;8.406;2024-02-04T07:40:25;9.10;99.90
33815;DHT22;20121;51.910;8.406;2024-02-04T07:42:52;9.10;99.90
33815;DHT22;20121;51.910;8.406;2024-02-04T07:45:18;9.10;99.90
33815;DHT22;20121;51.910;8.406;2024-02-04T07:47:43;9.10;99.90
33815;DHT22;20121;51.910;8.406;2024-02-04T07:50:09;9.20;99.90
33815;DHT22;20121;51.910;8.406;2024-02-04T07:52:35;9.00;99.90
33815;DHT22;20121;51.910;8.406;2024-02-04T07:55:01;9.30;99.90
33815;DHT22;20121;51.910;8.406;2024-02-04T07:57:26;9.00;99.90
33815;DHT22;20121;51.910;8.406;2024-02-04T07:59:52;9.00;99.90
33815;DHT22;20121;51.910;8.406;2024-02-04T08:02:18;8.80;99.90
33815;DHT22;20121;51.910;8.406;2024-02-04T08:04:43;8.90;99.90
33815;DHT22;20121;51.910;8.406;2024-02-04T08:07:09;8.80;99.90
33815;DHT22;20121;51.910;8.406;2024-02-04T08:09:35;8.80;99.90
33815;DHT22;20121;51.910;8.406;2024-02-04T08:12:00;8.70;99.90
33815;DHT22;20121;51.910;8.406;2024-02-04T08:14:26;8.70;99.90
33815;DHT22;20121;51.910;8.406;2024-02-04T08:16:52;8.70;99.90
33815;DHT22;20121;51.910;8.406;2024-02-04T08:19:17;8.70;99.90
33815;DHT22;20121;51.910;8.406;2024-02-04T08:21:43;8.70;99.90
33815;DHT22;20121;51.910;8.406;2024-02-04T08:24:09;8.70;99.90
33815;DHT22;20121;51.910;8.406;2024-02-04T08:26:34;8.70;99.90
33815;DHT22;20121;51.910;8.406;2024-02-04T08:29:00;9.00;99.90
33815;DHT22;20121;51.910;8.406;2024-02-04T08:31:25;8.60;99.90
33815;DHT22;20121;51.910;8.406;2024-02-04T08:33:51;8.20;99.90
33815;DHT22;20121;51.910;8.406;2024-02-04T08:36:18;8.70;99.90
33815;DHT22;20121;51.910;8.406;2024-02-04T08:38:44;8.60;99.90
33815;DHT22;20121;51.910;8.406;2024-02-04T08:41:09;8.60;99.90
33815;DHT22;20121;51.910;8.406;2024-02-04T08:43:35;8.60;99.90
33815;DHT22;20121;51.910;8.406;2024-02-04T08:46:01;8.50;99.90
33815;DHT22;20121;51.910;8.406;2024-02-04T08:48:26;8.50;99.90
33815;DHT22;20121;51.910;8.406;2024-02-04T08:50:52;8.50;99.90
33815;DHT22;20121;51.910;8.406;2024-02-04T08:53:20;8.20;99.90
33815;DHT22;20121;51.910;8.406;2024-02-04T08:55:45;8.50;99.90
33815;DHT22;20121;51.910;8.406;2024-02-04T08:58:11;8.50;99.90
33815;DHT22;20121;51.910;8.406;2024-02-04T09:00:37;8.50;99.90
33815;DHT22;20121;51.910;8.406;2024-02-04T09:03:02;8.10;99.90
33815;DHT22;20121;51.910;8.406;2024-02-04T09:05:28;8.40;99.90
33815;DHT22;20121;51.910;8.406;2024-02-04T09:07:54;8.40;99.90
33815;DHT22;20121;51.910;8.406;2024-02-04T09:10:21;8.40;99.90
33815;DHT22;20121;51.910;8.406;2024-02-04T09:12:47;8.40;99.90
33815;DHT22;20121;51.910;8.406;2024-02-04T09:17:38;8.60;99.90
33815;DHT22;20121;51.910;8.406;2024-02-04T09:20:04;8.40;99.90
33815;DHT22;20121;51.910;8.406;2024-02-04T09:22:31;8.50;99.90
33815;DHT22;20121;51.910;8.406;2024-02-04T09:24:56;8.60;99.90
33815;DHT22;20121;51.910;8.406;2024-02-04T09:27:22;8.50;99.90
33815;DHT22;20121;51.910;8.406;2024-02-04T09:29:48;8.50;99.90
33815;DHT22;20121;51.910;8.406;2024-02-04T09:32:13;8.50;99.90
33815;DHT22;20121;51.910;8.406;2024-02-04T09:34:39;8.50;99.90
33815;DHT22;20121;51.910;8.406;2024-02-04T09:37:04;8.50;99.90
33815;DHT22;20121;51.910;8.406;2024-02-04T09:39:30;8.50;99.90
33815;DHT22;20121;51.910;8.406;2024-02-04T09:41:56;8.50;99.90
33815;DHT22;20121;51.910;8.406;2024-02-04T09:44:23;8.60;99.90
33815;DHT22;20121;51.910;8.406;2024-02-04T09:46:48;8.60;99.90
33815;DHT22;20121;51.910;8.406;2024-02-04T09:49:14;8.60;99.90
33815;DHT22;20121;51.910;8.406;2024-02-04T09:51:41;8.60;99.90
33815;DHT22;20121;51.910;8.406;2024-02-04T09:54:10;8.60;99.90
33815;DHT22;20121;51.910;8.406;2024-02-04T09:56:37;8.70;99.90
33815;DHT22;20121;51.910;8.406;2024-02-04T09:59:04;8.70;99.90
33815;DHT22;20121;51.910;8.406;2024-02-04T10:01:31;8.70;99.90
33815;DHT22;20121;51.910;8.406;2024-02-04T10:03:57;8.70;99.90
33815;DHT22;20121;51.910;8.406;2024-02-04T10:06:22;8.70;99.90
33815;DHT22;20121;51.910;8.406;2024-02-04T10:08:48;8.70;99.90
33815;DHT22;20121;51.910;8.406;2024-02-04T10:11:14;8.70;99.90
33815;DHT22;20121;51.910;8.406;2024-02-04T10:13:48;8.70;99.90
33815;DHT22;20121;51.910;8.406;2024-02-04T10:16:15;8.70;99.90
33815;DHT22;20121;51.910;8.406;2024-02-04T10:18:47;8.80;99.90
33815;DHT22;20121;51.910;8.406;2024-02-04T10:21:20;8.80;99.90
33815;DHT22;20121;51.910;8.406;2024-02-04T10:23:49;8.80;99.90
33815;DHT22;20121;51.910;8.406;2024-02-04T10:26:16;8.80;99.90
33815;DHT22;20121;51.910;8.406;2024-02-04T10:28:44;8.90;99.90
33815;DHT22;20121;51.910;8.406;2024-02-04T10:31:10;8.80;99.90
33815;DHT22;20121;51.910;8.406;2024-02-04T10:33:36;8.80;99.90
33815;DHT22;20121;51.910;8.406;2024-02-04T10:36:02;9.20;99.90
33815;DHT22;20121;51.910;8.406;2024-02-04T10:38:29;8.90;99.90
33815;DHT22;20121;51.910;8.406;2024-02-04T10:40:55;9.20;99.90
33815;DHT22;20121;51.910;8.406;2024-02-04T10:43:21;9.10;99.90
33815;DHT22;20121;51.910;8.406;2024-02-04T10:45:47;8.80;99.90
33815;DHT22;20121;51.910;8.406;2024-02-04T10:48:19;8.80;99.90
33815;DHT22;20121;51.910;8.406;2024-02-04T10:50:46;9.20;99.90
33815;DHT22;20121;51.910;8.406;2024-02-04T10:53:14;9.30;99.90
33815;DHT22;20121;51.910;8.406;2024-02-04T10:55:44;9.00;99.90
33815;DHT22;20121;51.910;8.406;2024-02-04T10:58:12;9.00;99.90
33815;DHT22;20121;51.910;8.406;2024-02-04T11:00:40;9.10;99.90
33815;DHT22;20121;51.910;8.406;2024-02-04T11:03:06;9.40;99.90
33815;DHT22;20121;51.910;8.406;2024-02-04T11:05:32;9.10;99.90
33815;DHT22;20121;51.910;8.406;2024-02-04T11:08:02;9.30;99.90
33815;DHT22;20121;51.910;8.406;2024-02-04T11:10:30;9.00;99.90
33815;DHT22;20121;51.910;8.406;2024-02-04T11:12:57;8.80;99.90
33815;DHT22;20121;51.910;8.406;2024-02-04T11:15:28;9.30;99.90
33815;DHT22;20121;51.910;8.406;2024-02-04T11:18:24;9.30;99.90
33815;DHT22;20121;51.910;8.406;2024-02-04T11:24:00;9.30;99.90
33815;DHT22;20121;51.910;8.406;2024-02-04T11:26:33;9.20;99.90
33815;DHT22;20121;51.910;8.406;2024-02-04T11:29:00;9.20;99.90
33815;DHT22;20121;51.910;8.406;2024-02-04T11:31:28;9.20;99.90
33815;DHT22;20121;51.910;8.406;2024-02-04T11:33:54;9.40;99.90
33815;DHT22;20121;51.910;8.406;2024-02-04T11:36:25;9.40;99.90
33815;DHT22;20121;51.910;8.406;2024-02-04T11:38:51;9.70;99.90
33815;DHT22;20121;51.910;8.406;2024-02-04T11:41:24;9.40;99.90
33815;DHT22;20121;51.910;8.406;2024-02-04T11:43:55;9.40;99.90
33815;DHT22;20121;51.910;8.406;2024-02-04T11:46:21;9.40;99.90
33815;DHT22;20121;51.910;8.406;2024-02-04T11:48:52;9.40;99.90
33815;DHT22;20121;51.910;8.406;2024-02-04T11:51:24;8.50;99.90
33815;DHT22;20121;51.910;8.406;2024-02-04T11:53:51;9.40;99.90
33815;DHT22;20121;51.910;8.406;2024-02-04T11:56:20;9.40;99.90
33815;DHT22;20121;51.910;8.406;2024-02-04T11:58:46;9.40;99.90
33815;DHT22;20121;51.910;8.406;2024-02-04T12:01:12;9.50;99.90
33815;DHT22;20121;51.910;8.406;2024-02-04T12:03:38;9.50;99.90
33815;DHT22;20121;51.910;8.406;2024-02-04T12:06:04;9.50;99.90
33815;DHT22;20121;51.910;8.406;2024-02-04T12:08:32;9.50;99.90
33815;DHT22;20121;51.910;8.406;2024-02-04T12:10:59;9.50;99.90
33815;DHT22;20121;51.910;8.406;2024-02-04T12:13:25;9.60;99.90
33815;DHT22;20121;51.910;8.406;2024-02-04T12:15:53;9.50;99.90
33815;DHT22;20121;51.910;8.406;2024-02-04T12:18:18;9.50;99.90
33815;DHT22;20121;51.910;8.406;2024-02-04T12:20:47;9.50;99.90
33815;DHT22;20121;51.910;8.406;2024-02-04T12:23:17;9.50;99.90
33815;DHT22;20121;51.910;8.406;2024-02-04T12:25:44;9.50;99.90
33815;DHT22;20121;51.910;8.406;2024-02-04T12:28:09;9.50;99.90
33815;DHT22;20121;51.910;8.406;2024-02-04T12:30:35;9.80;99.90
33815;DHT22;20121;51.910;8.406;2024-02-04T12:33:02;10.50;99.90
33815;DHT22;20121;51.910;8.406;2024-02-04T12:35:30;9.60;99.90
33815;DHT22;20121;51.910;8.406;2024-02-04T12:37:57;9.60;99.90
33815;DHT22;20121;51.910;8.406;2024-02-04T12:40:23;9.60;99.90
33815;DHT22;20121;51.910;8.406;2024-02-04T12:42:59;9.60;99.90
33815;DHT22;20121;51.910;8.406;2024-02-04T12:45:27;9.60;99.90
33815;DHT22;20121;51.910;8.406;2024-02-04T12:47:57;9.60;99.90
33815;DHT22;20121;51.910;8.406;2024-02-04T12:50:24;8.90;99.90
33815;DHT22;20121;51.910;8.406;2024-02-04T12:53:07;9.60;99.90
33815;DHT22;20121;51.910;8.406;2024-02-04T12:55:35;9.60;99.90
33815;DHT22;20121;51.910;8.406;2024-02-04T12:58:09;9.60;99.90
33815;DHT22;20121;51.910;8.406;2024-02-04T13:00:35;9.60;99.90
33815;DHT22;20121;51.910;8.406;2024-02-04T13:03:03;9.60;99.90
33815;DHT22;20121;51.910;8.406;2024-02-04T13:05:29;9.60;99.90
33815;DHT22;20121;51.910;8.406;2024-02-04T13:07:58;9.60;99.90
33815;DHT22;20121;51.910;8.406;2024-02-04T13:10:24;9.60;99.90
33815;DHT22;20121;51.910;8.406;2024-02-04T13:15:30;9.60;99.90
33815;DHT22;20121;51.910;8.406;2024-02-04T13:17:56;9.60;99.90
33815;DHT22;20121;51.910;8.406;2024-02-04T13:20:22;9.70;99.90
33815;DHT22;20121;51.910;8.406;2024-02-04T13:22:48;9.60;99.90
33815;DHT22;20121;51.910;8.406;2024-02-04T13:30:10;9.60;99.90
33815;DHT22;20121;51.910;8.406;2024-02-04T13:32:40;9.40;99.90
33815;DHT22;20121;51.910;8.406;2024-02-04T13:35:07;9.30;99.90
33815;DHT22;20121;51.910;8.406;2024-02-04T13:37:38;9.60;99.90
33815;DHT22;20121;51.910;8.406;2024-02-04T13:40:04;9.60;99.90
33815;DHT22;20121;51.910;8.406;2024-02-04T13:42:32;9.60;99.90
33815;DHT22;20121;51.910;8.406;2024-02-04T13:44:59;9.50;99.90
33815;DHT22;20121;51.910;8.406;2024-02-04T13:47:25;10.00;99.90
33815;DHT22;20121;51.910;8.406;2024-02-04T13:49:50;9.80;99.90
33815;DHT22;20121;51.910;8.406;2024-02-04T13:52:16;9.10;99.90
33815;DHT22;20121;51.910;8.406;2024-02-04T13:54:41;9.60;99.90
33815;DHT22;20121;51.910;8.406;2024-02-04T13:57:07;9.40;99.90
33815;DHT22;20121;51.910;8.406;2024-02-04T13:59:33;9.60;99.90
33815;DHT22;20121;51.910;8.406;2024-02-04T14:01:58;10.00;99.90
33815;DHT22;20121;51.910;8.406;2024-02-04T14:04:24;9.60;99.90
33815;DHT22;20121;51.910;8.406;2024-02-04T14:06:49;9.80;99.90
33815;DHT22;20121;51.910;8.406;2024-02-04T14:09:15;9.60;99.90
33815;DHT22;20121;51.910;8.406;2024-02-04T14:11:42;9.60;99.90
33815;DHT22;20121;51.910;8.406;2024-02-04T14:14:07;9.40;99.90
33815;DHT22;20121;51.910;8.406;2024-02-04T14:16:33;9.60;99.90
33815;DHT22;20121;51.910;8.406;2024-02-04T14:18:58;9.50;99.90
33815;DHT22;20121;51.910;8.406;2024-02-04T14:21:24;9.60;99.90
33815;DHT22;20121;51.910;8.406;2024-02-04T14:23:50;9.70;99.90
33815;DHT22;20121;51.910;8.406;2024-02-04T14:26:19;9.40;99.90
33815;DHT22;20121;51.910;8.406;2024-02-04T14:28:45;9.60;99.90
33815;DHT22;20121;51.910;8.406;2024-02-04T14:31:11;9.60;99.90
33815;DHT22;20121;51.910;8.406;2024-02-04T14:33:37;9.50;99.90
33815;DHT22;20121;51.910;8.406;2024-02-04T14:36:04;9.50;99.90
33815;DHT22;20121;51.910;8.406;2024-02-04T14:38:30;9.50;99.90
33815;DHT22;20121;51.910;8.406;2024-02-04T14:40:59;9.50;99.90
33815;DHT22;20121;51.910;8.406;2024-02-04T14:43:25;9.10;99.90
33815;DHT22;20121;51.910;8.406;2024-02-04T14:45:51;9.80;99.90
33815;DHT22;20121;51.910;8.406;2024-02-04T14:48:16;9.30;99.90
33815;DHT22;20121;51.910;8.406;2024-02-04T14:50:43;9.30;99.90
33815;DHT22;20121;51.910;8.406;2024-02-04T14:53:09;9.60;99.90
33815;DHT22;20121;51.910;8.406;2024-02-04T14:55:34;9.20;99.90
33815;DHT22;20121;51.910;8.406;2024-02-04T14:58:00;9.40;99.90
33815;DHT22;20121;51.910;8.406;2024-02-04T15:02:56;9.10;99.90
33815;DHT22;20121;51.910;8.406;2024-02-04T15:05:22;9.00;99.90
33815;DHT22;20121;51.910;8.406;2024-02-04T15:07:48;9.20;99.90
33815;DHT22;20121;51.910;8.406;2024-02-04T15:10:14;9.20;99.90
33815;DHT22;20121;51.910;8.406;2024-02-04T15:12:40;9.20;99.90
33815;DHT22;20121;51.910;8.406;2024-02-04T15:15:06;9.20;99.90
33815;DHT22;20121;51.910;8.406;2024-02-04T15:17:33;9.20;99.90
33815;DHT22;20121;51.910;8.406;2024-02-04T15:19:59;9.20;99.90
33815;DHT22;20121;51.910;8.406;2024-02-04T15:22:25;9.20;99.90
33815;DHT22;20121;51.910;8.406;2024-02-04T15:24:51;9.20;99.90
33815;DHT22;20121;51.910;8.406;2024-02-04T15:27:18;9.20;99.90
33815;DHT22;20121;51.910;8.406;2024-02-04T15:29:47;8.90;99.90
33815;DHT22;20121;51.910;8.406;2024-02-04T15:32:14;9.30;99.90
33815;DHT22;20121;51.910;8.406;2024-02-04T15:34:41;9.20;99.90
33815;DHT22;20121;51.910;8.406;2024-02-04T15:37:07;9.30;99.90
33815;DHT22;20121;51.910;8.406;2024-02-04T15:39:34;9.30;99.90
33815;DHT22;20121;51.910;8.406;2024-02-04T15:42:00;9.20;99.90
33815;DHT22;20121;51.910;8.406;2024-02-04T15:44:26;9.30;99.90
33815;DHT22;20121;51.910;8.406;2024-02-04T15:46:52;8.80;99.90
33815;DHT22;20121;51.910;8.406;2024-02-04T15:49:19;9.10;99.90
33815;DHT22;20121;51.910;8.406;2024-02-04T15:51:46;9.20;99.90
33815;DHT22;20121;51.910;8.406;2024-02-04T15:54:13;9.30;99.90
33815;DHT22;20121;51.910;8.406;2024-02-04T15:56:57;9.20;99.90
33815;DHT22;20121;51.910;8.406;2024-02-04T15:59:30;9.40;99.90
33815;DHT22;20121;51.910;8.406;2024-02-04T16:01:59;9.20;99.90
33815;DHT22;20121;51.910;8.406;2024-02-04T16:04:25;9.10;99.90
33815;DHT22;20121;51.910;8.406;2024-02-04T16:06:50;9.20;99.90
33815;DHT22;20121;51.910;8.406;2024-02-04T16:09:16;8.90;99.90
33815;DHT22;20121;51.910;8.406;2024-02-04T16:11:58;9.40;99.90
33815;DHT22;20121;51.910;8.406;2024-02-04T16:14:27;9.50;99.90
33815;DHT22;20121;51.910;8.406;2024-02-04T16:17:01;9.20;99.90
33815;DHT22;20121;51.910;8.406;2024-02-04T16:19:29;9.30;99.90
33815;DHT22;20121;51.910;8.406;2024-02-04T16:21:55;9.00;99.90
33815;DHT22;20121;51.910;8.406;2024-02-04T16:24:21;9.40;99.90
33815;DHT22;20121;51.910;8.406;2024-02-04T16:26:47;9.20;99.90
33815;DHT22;20121;51.910;8.406;2024-02-04T16:29:12;9.00;99.90
33815;DHT22;20121;51.910;8.406;2024-02-04T16:31:38;9.20;99.90
33815;DHT22;20121;51.910;8.406;2024-02-04T16:34:03;9.20;99.90
33815;DHT22;20121;51.910;8.406;2024-02-04T16:36:29;9.20;99.90
33815;DHT22;20121;51.910;8.406;2024-02-04T16:38:55;9.20;99.90
33815;DHT22;20121;51.910;8.406;2024-02-04T16:41:20;9.00;99.90
33815;DHT22;20121;51.910;8.406;2024-02-04T16:43:46;9.20;99.90
33815;DHT22;20121;51.910;8.406;2024-02-04T16:46:11;9.00;99.90
33815;DHT22;20121;51.910;8.406;2024-02-04T16:48:37;9.20;99.90
33815;DHT22;20121;51.910;8.406;2024-02-04T16:51:03;9.20;99.90
33815;DHT22;20121;51.910;8.406;2024-02-04T16:53:29;9.00;99.90
33815;DHT22;20121;51.910;8.406;2024-02-04T16:55:54;9.20;99.90
33815;DHT22;20121;51.910;8.406;2024-02-04T16:58:20;8.50;99.90
33815;DHT22;20121;51.910;8.406;2024-02-04T17:00:45;9.20;99.90
33815;DHT22;20121;51.910;8.406;2024-02-04T17:03:11;9.20;99.90
33815;DHT22;20121;51.910;8.406;2024-02-04T17:05:37;8.90;99.90
33815;DHT22;20121;51.910;8.406;2024-02-04T17:08:04;8.90;99.90
33815;DHT22;20121;51.910;8.406;2024-02-04T17:10:30;9.20;99.90
33815;DHT22;20121;51.910;8.406;2024-02-04T17:12:56;9.30;99.90
33815;DHT22;20121;51.910;8.406;2024-02-04T17:15:22;9.30;99.90
33815;DHT22;20121;51.910;8.406;2024-02-04T17:18:00;9.30;99.90
33815;DHT22;20121;51.910;8.406;2024-02-04T17:20:30;9.30;99.90
33815;DHT22;20121;51.910;8.406;2024-02-04T17:22:59;9.30;99.90
33815;DHT22;20121;51.910;8.406;2024-02-04T17:25:30;9.20;99.90
33815;DHT22;20121;51.910;8.406;2024-02-04T17:27:58;9.50;99.90
33815;DHT22;20121;51.910;8.406;2024-02-04T17:30:30;9.70;99.90
33815;DHT22;20121;51.910;8.406;2024-02-04T17:32:57;9.40;99.90
33815;DHT22;20121;51.910;8.406;2024-02-04T17:35:23;9.70;99.90
33815;DHT22;20121;51.910;8.406;2024-02-04T17:37:50;9.40;99.90
33815;DHT22;20121;51.910;8.406;2024-02-04T17:40:16;9.30;99.90
33815;DHT22;20121;51.910;8.406;2024-02-04T17:42:42;9.40;99.90
33815;DHT22;20121;51.910;8.406;2024-02-04T17:45:08;9.30;99.90
33815;DHT22;20121;51.910;8.406;2024-02-04T17:47:35;9.50;99.90
33815;DHT22;20121;51.910;8.406;2024-02-04T17:50:01;9.50;99.90
33815;DHT22;20121;51.910;8.406;2024-02-04T17:52:27;9.50;99.90
33815;DHT22;20121;51.910;8.406;2024-02-04T17:54:56;9.50;99.90
33815;DHT22;20121;51.910;8.406;2024-02-04T17:57:23;9.60;99.90
33815;DHT22;20121;51.910;8.406;2024-02-04T17:59:50;9.60;99.90
33815;DHT22;20121;51.910;8.406;2024-02-04T18:02:16;9.60;99.90
33815;DHT22;20121;51.910;8.406;2024-02-04T18:04:44;9.60;99.90
33815;DHT22;20121;51.910;8.406;2024-02-04T18:07:09;9.60;99.90
33815;DHT22;20121;51.910;8.406;2024-02-04T18:09:35;9.70;99.90
33815;DHT22;20121;51.910;8.406;2024-02-04T18:12:05;9.70;99.90
33815;DHT22;20121;51.910;8.406;2024-02-04T18:14:31;9.70;99.90
33815;DHT22;20121;51.910;8.406;2024-02-04T18:16:57;9.70;99.90
33815;DHT22;20121;51.910;8.406;2024-02-04T18:19:22;10.10;99.90
33815;DHT22;20121;51.910;8.406;2024-02-04T18:21:48;9.70;99.90
33815;DHT22;20121;51.910;8.406;2024-02-04T18:24:15;9.70;99.90
33815;DHT22;20121;51.910;8.406;2024-02-04T18:26:41;9.70;99.90
33815;DHT22;20121;51.910;8.406;2024-02-04T18:29:07;9.80;99.90
33815;DHT22;20121;51.910;8.406;2024-02-04T18:31:32;9.80;99.90
33815;DHT22;20121;51.910;8.406;2024-02-04T18:33:59;9.80;99.90
33815;DHT22;20121;51.910;8.406;2024-02-04T18:36:26;9.70;99.90
33815;DHT22;20121;51.910;8.406;2024-02-04T18:38:57;9.80;99.90
33815;DHT22;20121;51.910;8.406;2024-02-04T18:41:23;9.90;99.90
33815;DHT22;20121;51.910;8.406;2024-02-04T18:43:50;9.80;99.90
33815;DHT22;20121;51.910;8.406;2024-02-04T18:46:16;9.80;99.90
33815;DHT22;20121;51.910;8.406;2024-02-04T18:48:43;9.80;99.90
33815;DHT22;20121;51.910;8.406;2024-02-04T18:51:09;9.80;99.90
33815;DHT22;20121;51.910;8.406;2024-02-04T18:53:35;10.00;99.90
33815;DHT22;20121;51.910;8.406;2024-02-04T18:56:05;9.90;99.90
33815;DHT22;20121;51.910;8.406;2024-02-04T18:58:31;9.80;99.90
33815;DHT22;20121;51.910;8.406;2024-02-04T19:00:58;9.90;99.90
33815;DHT22;20121;51.910;8.406;2024-02-04T19:03:23;9.90;99.90
33815;DHT22;20121;51.910;8.406;2024-02-04T19:05:49;9.90;99.90
33815;DHT22;20121;51.910;8.406;2024-02-04T19:08:15;9.90;99.90
33815;DHT22;20121;51.910;8.406;2024-02-04T19:10:41;9.90;99.90
33815;DHT22;20121;51.910;8.406;2024-02-04T19:13:07;9.90;99.90
33815;DHT22;20121;51.910;8.406;2024-02-04T19:15:32;9.90;99.90
33815;DHT22;20121;51.910;8.406;2024-02-04T19:17:58;9.90;99.90
33815;DHT22;20121;51.910;8.406;2024-02-04T19:20:24;9.90;99.90
33815;DHT22;20121;51.910;8.406;2024-02-04T19:22:50;9.90;99.90
33815;DHT22;20121;51.910;8.406;2024-02-04T19:27:52;9.90;99.90
33815;DHT22;20121;51.910;8.406;2024-02-04T19:30:20;9.60;99.90
33815;DHT22;20121;51.910;8.406;2024-02-04T19:32:48;9.80;99.90
33815;DHT22;20121;51.910;8.406;2024-02-04T19:37:44;10.20;99.90
33815;DHT22;20121;51.910;8.406;2024-02-04T19:40:11;9.90;99.90
33815;DHT22;20121;51.910;8.406;2024-02-04T19:42:37;10.30;99.90
33815;DHT22;20121;51.910;8.406;2024-02-04T19:45:04;10.20;99.90
33815;DHT22;20121;51.910;8.406;2024-02-04T19:47:31;10.00;99.90
33815;DHT22;20121;51.910;8.406;2024-02-04T19:49:57;9.90;99.90
33815;DHT22;20121;51.910;8.406;2024-02-04T19:52:23;9.90;99.90
33815;DHT22;20121;51.910;8.406;2024-02-04T19:54:48;9.90;99.90
33815;DHT22;20121;51.910;8.406;2024-02-04T19:57:14;9.80;99.90
33815;DHT22;20121;51.910;8.406;2024-02-04T19:59:40;9.70;99.90
33815;DHT22;20121;51.910;8.406;2024-02-04T20:02:05;10.00;99.90
33815;DHT22;20121;51.910;8.406;2024-02-04T20:04:34;9.90;99.90
33815;DHT22;20121;51.910;8.406;2024-02-04T20:07:00;9.90;99.90
33815;DHT22;20121;51.910;8.406;2024-02-04T20:09:32;9.90;99.90
33815;DHT22;20121;51.910;8.406;2024-02-04T20:11:58;10.30;99.90
33815;DHT22;20121;51.910;8.406;2024-02-04T20:14:24;10.20;99.90
33815;DHT22;20121;51.910;8.406;2024-02-04T20:16:49;9.90;99.90
33815;DHT22;20121;51.910;8.406;2024-02-04T20:19:15;10.00;99.90
33815;DHT22;20121;51.910;8.406;2024-02-04T20:21:41;9.90;99.90
33815;DHT22;20121;51.910;8.406;2024-02-04T20:24:08;9.60;99.90
33815;DHT22;20121;51.910;8.406;2024-02-04T20:26:37;9.90;99.90
33815;DHT22;20121;51.910;8.406;2024-02-04T20:29:03;10.00;99.90
33815;DHT22;20121;51.910;8.406;2024-02-04T20:31:29;10.00;99.90
33815;DHT22;20121;51.910;8.406;2024-02-04T20:33:55;10.40;99.90
33815;DHT22;20121;51.910;8.406;2024-02-04T20:36:21;10.00;99.90
33815;DHT22;20121;51.910;8.406;2024-02-04T20:38:46;10.00;99.90
33815;DHT22;20121;51.910;8.406;2024-02-04T20:41:12;10.00;99.90
33815;DHT22;20121;51.910;8.406;2024-02-04T20:43:38;10.00;99.90
33815;DHT22;20121;51.910;8.406;2024-02-04T20:46:04;10.30;99.90
33815;DHT22;20121;51.910;8.406;2024-02-04T20:48:35;10.00;99.90
33815;DHT22;20121;51.910;8.406;2024-02-04T20:51:00;10.00;99.90
33815;DHT22;20121;51.910;8.406;2024-02-04T20:53:26;10.00;99.90
33815;DHT22;20121;51.910;8.406;2024-02-04T20:55:52;10.30;99.90
33815;DHT22;20121;51.910;8.406;2024-02-04T20:58:20;10.00;99.90
33815;DHT22;20121;51.910;8.406;2024-02-04T21:00:46;9.90;99.90
33815;DHT22;20121;51.910;8.406;2024-02-04T21:03:11;10.10;99.90
33815;DHT22;20121;51.910;8.406;2024-02-04T21:05:37;10.10;99.90
33815;DHT22;20121;51.910;8.406;2024-02-04T21:08:06;11.80;99.90
33815;DHT22;20121;51.910;8.406;2024-02-04T21:10:32;10.10;99.90
33815;DHT22;20121;51.910;8.406;2024-02-04T21:12:58;10.30;99.90
33815;DHT22;20121;51.910;8.406;2024-02-04T21:15:24;10.30;99.90
33815;DHT22;20121;51.910;8.406;2024-02-04T21:17:53;10.10;99.90
33815;DHT22;20121;51.910;8.406;2024-02-04T21:20:19;10.10;99.90
33815;DHT22;20121;51.910;8.406;2024-02-04T21:22:45;10.10;99.90
33815;DHT22;20121;51.910;8.406;2024-02-04T21:27:38;10.20;99.90
33815;DHT22;20121;51.910;8.406;2024-02-04T21:30:05;10.20;99.90
33815;DHT22;20121;51.910;8.406;2024-02-04T21:32:31;10.00;99.90
33815;DHT22;20121;51.910;8.406;2024-02-04T21:34:57;10.20;99.90
33815;DHT22;20121;51.910;8.406;2024-02-04T21:37:23;10.60;99.90
33815;DHT22;20121;51.910;8.406;2024-02-04T21:42:14;10.20;99.90
33815;DHT22;20121;51.910;8.406;2024-02-04T21:44:44;10.40;99.90
33815;DHT22;20121;51.910;8.406;2024-02-04T21:47:10;9.90;99.90
33815;DHT22;20121;51.910;8.406;2024-02-04T21:49:40;10.20;99.90
33815;DHT22;20121;51.910;8.406;2024-02-04T21:52:06;10.20;99.90
33815;DHT22;20121;51.910;8.406;2024-02-04T21:54:31;10.30;99.90
33815;DHT22;20121;51.910;8.406;2024-02-04T21:56:57;9.70;99.90
33815;DHT22;20121;51.910;8.406;2024-02-04T21:59:23;10.10;99.90
33815;DHT22;20121;51.910;8.406;2024-02-04T22:01:49;10.20;99.90
33815;DHT22;20121;51.910;8.406;2024-02-04T22:04:20;10.20;99.90
33815;DHT22;20121;51.910;8.406;2024-02-04T22:06:46;10.00;99.90
33815;DHT22;20121;51.910;8.406;2024-02-04T22:09:11;10.20;99.90
33815;DHT22;20121;51.910;8.406;2024-02-04T22:11:39;9.90;99.90
33815;DHT22;20121;51.910;8.406;2024-02-04T22:14:05;10.10;99.90
33815;DHT22;20121;51.910;8.406;2024-02-04T22:16:30;9.80;99.90
33815;DHT22;20121;51.910;8.406;2024-02-04T22:18:56;10.20;99.90
33815;DHT22;20121;51.910;8.406;2024-02-04T22:21:22;10.20;99.90
33815;DHT22;20121;51.910;8.406;2024-02-04T22:23:47;9.90;99.90
33815;DHT22;20121;51.910;8.406;2024-02-04T22:26:13;10.20;99.90
33815;DHT22;20121;51.910;8.406;2024-02-04T22:28:39;10.60;99.90
33815;DHT22;20121;51.910;8.406;2024-02-04T22:31:06;10.30;99.90
33815;DHT22;20121;51.910;8.406;2024-02-04T22:33:33;10.00;99.90
33815;DHT22;20121;51.910;8.406;2024-02-04T22:35:59;10.40;99.90
33815;DHT22;20121;51.910;8.406;2024-02-04T22:38:24;9.90;99.90
33815;DHT22;20121;51.910;8.406;2024-02-04T22:40:50;10.40;99.90
33815;DHT22;20121;51.910;8.406;2024-02-04T22:43:16;10.20;99.90
33815;DHT22;20121;51.910;8.406;2024-02-04T22:45:41;10.40;99.90
33815;DHT22;20121;51.910;8.406;2024-02-04T22:48:07;10.00;99.90
33815;DHT22;20121;51.910;8.406;2024-02-04T22:50:33;10.20;99.90
33815;DHT22;20121;51.910;8.406;2024-02-04T22:52:58;9.90;99.90
33815;DHT22;20121;51.910;8.406;2024-02-04T22:55:24;10.30;99.90
33815;DHT22;20121;51.910;8.406;2024-02-04T22:57:50;9.90;99.90
33815;DHT22;20121;51.910;8.406;2024-02-04T23:00:16;10.50;99.90
33815;DHT22;20121;51.910;8.406;2024-02-04T23:02:53;10.20;99.90
33815;DHT22;20121;51.910;8.406;2024-02-04T23:05:19;10.60;99.90
33815;DHT22;20121;51.910;8.406;2024-02-04T23:10:11;10.30;99.90
33815;DHT22;20121;51.910;8.406;2024-02-04T23:12:37;10.20;99.90
33815;DHT22;20121;51.910;8.406;2024-02-04T23:15:02;10.20;99.90
33815;DHT22;20121;51.910;8.406;2024-02-04T23:17:30;9.90;99.90
33815;DHT22;20121;51.910;8.406;2024-02-04T23:19:56;10.50;99.90
33815;DHT22;20121;51.910;8.406;2024-02-04T23:22:21;10.30;99.90
33815;DHT22;20121;51.910;8.406;2024-02-04T23:29:39;10.00;99.90
33815;DHT22;20121;51.910;8.406;2024-02-04T23:32:06;10.20;99.90
33815;DHT22;20121;51.910;8.406;2024-02-04T23:34:32;10.70;99.90
33815;DHT22;20121;51.910;8.406;2024-02-04T23:39:23;10.50;99.90